Stations météo

réclame
Mon MeteoGroup
Comiso, Italie (16475): Température de l'air & dewpoint: 13.11.2017 20:00:00 - 19.11.2017 20:00:00 (CET)Comiso, Italie (16475): Vitesse du vent: 13.11.2017 20:00:00 - 19.11.2017 20:00:00 (CET)Comiso, Italie (16475): Direction du vent: 13.11.2017 20:00:00 - 19.11.2017 20:00:00 (CET)Comiso, Italie (16475): visibility: 13.11.2017 20:00:00 - 19.11.2017 20:00:00 (CET)
Date & Time tt [°C] td [°C] ff [km/h] ff [knt] dd vv [km]
19.11.2017 20:00:00 13,0 10,0 11 6 WNW 10
19.11.2017 19:00:00 13,0 11,0 13 7 WNW 10
19.11.2017 18:00:00 14,0 11,0 16 9 W 10
19.11.2017 17:00:00 15,0 11,0 9 5 W 10
19.11.2017 16:00:00 17,0 11,0 21 11 W 10
19.11.2017 15:00:00 18,0 10,0 18 10 W 10
19.11.2017 14:00:00 18,0 9,0 16 9 NW 10
19.11.2017 13:00:00 17,0 7,0 21 11 NW 10
19.11.2017 12:00:00 17,0 9,0 22 12 WNW 10
19.11.2017 11:00:00 16,0 9,0 18 10 WNW 10
19.11.2017 10:00:00 15,0 9,0 5 3 W 10
19.11.2017 09:00:00 14,0 10,0 2 1 - 10
19.11.2017 08:00:00 8,0 7,0 5 3 ENE 10
19.11.2017 07:00:00 6,0 5,0 5 3 ENE 10
19.11.2017 06:00:00 - - - - - -
19.11.2017 05:00:00 - - - - - -
19.11.2017 04:00:00 - - - - - -
19.11.2017 03:00:00 - - - - - -
19.11.2017 02:00:00 - - - - - -
19.11.2017 01:00:00 - - - - - -
19.11.2017 00:00:00 - - - - - -
18.11.2017 23:00:00 10,0 9,0 4 2 E 10
18.11.2017 22:00:00 12,0 11,0 5 3 E 10
18.11.2017 21:00:00 13,0 11,0 2 1 - 10
18.11.2017 20:00:00 14,0 12,0 2 1 - 10
18.11.2017 19:00:00 14,0 12,0 5 3 ESE 10
18.11.2017 18:00:00 15,0 12,0 4 2 - 10
18.11.2017 17:00:00 16,0 12,0 13 7 W 10
18.11.2017 16:00:00 17,0 12,0 22 12 W 10
18.11.2017 15:00:00 18,0 11,0 18 10 W 10
18.11.2017 14:00:00 19,0 11,0 16 9 W 10
18.11.2017 13:00:00 18,0 11,0 13 7 WNW 10
18.11.2017 12:00:00 18,0 10,0 5 3 W 10
18.11.2017 11:00:00 17,0 10,0 5 3 WSW 10
18.11.2017 10:00:00 16,0 10,0 5 3 SW 10
18.11.2017 09:00:00 14,0 10,0 5 3 ESE 10
18.11.2017 08:00:00 13,0 10,0 5 3 ESE 10
18.11.2017 07:00:00 7,0 6,0 5 3 NE 10
18.11.2017 06:00:00 - - - - - -
18.11.2017 05:00:00 - - - - - -
18.11.2017 04:00:00 - - - - - -
18.11.2017 03:00:00 - - - - - -
18.11.2017 02:00:00 - - - - - -
18.11.2017 01:00:00 - - - - - -
18.11.2017 00:00:00 - - - - - -
17.11.2017 23:00:00 10,0 8,0 4 2 - 10
17.11.2017 22:00:00 10,0 8,0 8 4 ENE 10
17.11.2017 21:00:00 11,0 9,0 8 4 ENE 10
17.11.2017 20:00:00 11,0 10,0 11 6 ENE 10
17.11.2017 19:00:00 12,0 10,0 4 2 E 10
17.11.2017 18:00:00 14,0 11,0 4 2 - 10
17.11.2017 17:00:00 15,0 11,0 4 2 W 10
17.11.2017 16:00:00 17,0 10,0 9 5 WSW 10
17.11.2017 15:00:00 17,0 10,0 11 6 WSW 10
17.11.2017 14:00:00 17,0 10,0 13 7 WNW 10
17.11.2017 13:00:00 16,0 10,0 13 7 WNW 10
17.11.2017 12:00:00 16,0 9,0 9 5 W 10
17.11.2017 11:00:00 15,0 9,0 9 5 W 10
17.11.2017 10:00:00 14,0 8,0 2 1 - 10
17.11.2017 09:00:00 12,0 10,0 2 1 - 10
17.11.2017 08:00:00 10,0 9,0 5 3 ENE 10
17.11.2017 07:00:00 9,0 7,0 5 3 E 10
17.11.2017 06:00:00 - - - - - -
17.11.2017 05:00:00 - - - - - -
17.11.2017 04:00:00 - - - - - -
17.11.2017 03:00:00 - - - - - -
17.11.2017 02:00:00 - - - - - -
17.11.2017 01:00:00 - - - - - -
17.11.2017 00:00:00 - - - - - -
16.11.2017 23:00:00 - - - - - -
16.11.2017 22:00:00 - - - - - -
16.11.2017 21:00:00 9,0 7,0 5 3 ESE 10
16.11.2017 20:00:00 10,0 7,0 4 2 - 10
16.11.2017 19:00:00 11,0 9,0 4 2 - 10
16.11.2017 18:00:00 12,0 9,0 4 2 - 10
16.11.2017 17:00:00 14,0 9,0 13 7 WNW 10
16.11.2017 16:00:00 16,0 10,0 15 8 WNW 10
16.11.2017 15:00:00 16,0 10,0 15 8 WNW 10
16.11.2017 14:00:00 15,0 10,0 13 7 W 10
16.11.2017 13:00:00 15,0 9,0 18 10 W 10
16.11.2017 12:00:00 16,0 7,0 13 7 NNW 10
16.11.2017 11:00:00 16,0 7,0 11 6 N 10
16.11.2017 10:00:00 15,0 9,0 13 7 NNW 10
16.11.2017 09:00:00 13,0 9,0 13 7 N 10
16.11.2017 08:00:00 11,0 9,0 13 7 NNE 10
16.11.2017 07:00:00 11,0 8,0 13 7 NNE 10
16.11.2017 06:00:00 - - - - - -
16.11.2017 05:00:00 - - - - - -
16.11.2017 04:00:00 - - - - - -
16.11.2017 03:00:00 - - - - - -
16.11.2017 02:00:00 - - - - - -
16.11.2017 01:00:00 - - - - - -
16.11.2017 00:00:00 - - - - - -
15.11.2017 23:00:00 12,0 6,0 15 8 ESE 10
15.11.2017 22:00:00 11,0 7,0 11 6 ESE 10
15.11.2017 21:00:00 11,0 8,0 16 9 ESE 10
15.11.2017 20:00:00 12,0 9,0 16 9 ESE 10
15.11.2017 19:00:00 11,0 9,0 8 4 E 10
15.11.2017 18:00:00 11,0 9,0 9 5 E 10
15.11.2017 17:00:00 13,0 8,0 4 2 SE 10
15.11.2017 16:00:00 15,0 7,0 9 5 S 10
15.11.2017 15:00:00 16,0 7,0 9 5 S 10
15.11.2017 14:00:00 14,0 8,0 9 5 S 10
15.11.2017 13:00:00 16,0 8,0 8 4 S 10
15.11.2017 12:00:00 14,0 9,0 9 5 SSW 10
15.11.2017 11:00:00 15,0 9,0 9 5 SSE 10
15.11.2017 10:00:00 12,0 9,0 2 1 - 10
15.11.2017 09:00:00 12,0 8,0 2 1 - 10
15.11.2017 08:00:00 10,0 8,0 5 3 NE 10
15.11.2017 07:00:00 9,0 7,0 9 5 ESE 10
15.11.2017 06:00:00 - - - - - -
15.11.2017 05:00:00 - - - - - -
15.11.2017 04:00:00 - - - - - -
15.11.2017 03:00:00 - - - - - -
15.11.2017 02:00:00 - - - - - -
15.11.2017 01:00:00 - - - - - -
15.11.2017 00:00:00 - - - - - -
14.11.2017 23:00:00 10,0 8,0 2 1 - 10
14.11.2017 22:00:00 11,0 9,0 11 6 S 10
14.11.2017 21:00:00 7,0 6,0 5 3 E 10
14.11.2017 20:00:00 8,0 6,0 8 4 E 10
14.11.2017 19:00:00 8,0 7,0 4 2 - 10
14.11.2017 18:00:00 9,0 7,0 5 3 SSW 10
14.11.2017 17:00:00 10,0 7,0 2 1 - 10
14.11.2017 16:00:00 12,0 7,0 5 3 E 10
14.11.2017 15:00:00 10,0 9,0 11 6 ESE 10
14.11.2017 14:00:00 10,0 9,0 5 3 NNE 7
14.11.2017 13:00:00 10,0 8,0 9 5 NNW 6
14.11.2017 12:00:00 11,0 8,0 9 5 SW 8
14.11.2017 11:00:00 12,0 8,0 2 1 - 10
14.11.2017 10:00:00 11,0 8,0 5 3 S 10
14.11.2017 09:00:00 10,0 9,0 4 2 - 10
14.11.2017 08:00:00 10,0 8,0 2 1 - 10
14.11.2017 07:00:00 9,0 8,0 8 4 NE 10
14.11.2017 06:00:00 - - - - - -
14.11.2017 05:00:00 - - - - - -
14.11.2017 04:00:00 - - - - - -
14.11.2017 03:00:00 - - - - - -
14.11.2017 02:00:00 - - - - - -
14.11.2017 01:00:00 - - - - - -
14.11.2017 00:00:00 - - - - - -
13.11.2017 23:00:00 12,0 9,0 0 0 N 10
13.11.2017 22:00:00 12,0 7,0 4 2 - 10
13.11.2017 21:00:00 12,0 9,0 4 2 - 10
13.11.2017 20:00:00 13,0 9,0 5 3 - 10

tt = Température de l'air
td = dewpoint
ff = Vitesse du vent
dd = Direction du vent
vv = visibility

stations d'obs. à proximité